2022年9月27日 6:00 上午2022年9月27日 6:00 下午有效
时间
星期二
6:00 上午
星期二
7:00 上午
星期二
8:00 上午
星期二
9:00 上午
星期二
10:00 上午
星期二
11:00 上午
星期二
12:00 下午
星期二
1:00 下午
星期二
2:00 下午
星期二
3:00 下午
星期二
4:00 下午
星期二
5:00 下午
代码
VFR
VFR
VFR
VFR
VFR
VFR
VFR
VFR
VFR
VFR
VFR
VFR
天气
天空晴朗
天空晴朗
天空晴朗
天空晴朗
天空晴朗
天空晴朗
天空晴朗
天空晴朗
天空晴朗
天空晴朗
天空晴朗
天空晴朗
能见度
6 mi+
6 mi+
6 mi+
6 mi+
6 mi+
6 mi+
6 mi+
6 mi+
6 mi+
6 mi+
6 mi+
6 mi+
天花板
-
-
-
-
-
-
-
-
-
-
-
-
280°
280°
280°
280°
280°
280°
280°
280°
280°
280°
280°
280°
280°
280°
280°
280°
280°
280°
280°
280°
Var
Var
Var
Var
速度
6 kt
6 kt
6 kt
6 kt
6 kt
6 kt
6 kt
6 kt
6 kt
6 kt
6 kt
6 kt
阵风
温度/星期日
7:32 上午

原版的

TAF CYBW 271140Z 2712/2724 28006KT P6SM SKC
BECMG 2722/2724 VRB03KT RMK FCST BASED ON AUTO OBS. NXT FCST BY 271800Z

TAF Calgary International Airport

Calgary International Airport是Calgary,加拿大中的大型机场。 该机场有5条跑道: 8/26, 11/29, 17L/35R, 17R/35L 和 17/35. 该领域的国际民航组织标志是CYYC 它的国际航空运输协会代码是YYC.

这份报告是针对2022年9月27日 5:40 上午, 当地时间在Calgary / Springbank Airport进行的。 从2022年9月27日 6:00 上午到2022年9月27日 6:00 下午, 当地时间有效.

预报

  • 在星期二 6:00 上午和6:00 下午之间

    • 风: 风来自280°方向,速度为6 kt。
    • 能见度: 6 mi 或者更多
    • 乌云: 没有云.

  • 介于星期二 4:00 下午和6:00 下午之间

    • 风: 可变方向的风很小或没有。

白天

今天,太阳从7:30 上午升起,在7:23 下午降落。 这适用于Calgary International Airport,世界夏令时可能有所不同。 当地时间与世界标准时间之间的时差为-6 小时。 夏令时目前正在进行中。

我们和第三方通过cookies跟踪您在我们网站上的上网行为。如果您继续,我们认为您同意我们的cookie政策。 了解更多